sensor_id;sensor_type;location;lat;lon;timestamp;pressure;altitude;pressure_sealevel;temperature;humidity
48555;BME280;34336;48.270;16.716;2023-01-09T00:00:31;76640.34;;;18.16;100.00
48555;BME280;34336;48.270;16.716;2023-01-09T00:02:57;76644.22;;;18.16;100.00
48555;BME280;34336;48.270;16.716;2023-01-09T00:05:24;76644.22;;;18.16;100.00
48555;BME280;34336;48.270;16.716;2023-01-09T00:07:51;76636.50;;;18.16;100.00
48555;BME280;34336;48.270;16.716;2023-01-09T00:10:17;76626.88;;;18.16;100.00
48555;BME280;34336;48.270;16.716;2023-01-09T00:12:44;76624.94;;;18.16;100.00
48555;BME280;34336;48.270;16.716;2023-01-09T00:15:11;76621.09;;;18.16;100.00
48555;BME280;34336;48.270;16.716;2023-01-09T00:17:38;76617.22;;;18.16;100.00
48555;BME280;34336;48.270;16.716;2023-01-09T00:20:06;76624.94;;;18.16;100.00
48555;BME280;34336;48.270;16.716;2023-01-09T00:22:36;76613.38;;;18.16;100.00
48555;BME280;34336;48.270;16.716;2023-01-09T00:25:03;76611.44;;;18.16;100.00
48555;BME280;34336;48.270;16.716;2023-01-09T00:27:32;76599.88;;;18.16;100.00
48555;BME280;34336;48.270;16.716;2023-01-09T00:29:59;76605.66;;;18.16;100.00
48555;BME280;34336;48.270;16.716;2023-01-09T00:32:26;76605.66;;;18.16;100.00
48555;BME280;34336;48.270;16.716;2023-01-09T00:34:54;76601.81;;;18.16;100.00
48555;BME280;34336;48.270;16.716;2023-01-09T00:37:21;76596.03;;;18.16;100.00
48555;BME280;34336;48.270;16.716;2023-01-09T00:39:48;76601.81;;;18.16;100.00
48555;BME280;34336;48.270;16.716;2023-01-09T00:42:18;76601.81;;;18.16;100.00
48555;BME280;34336;48.270;16.716;2023-01-09T00:44:49;76596.03;;;18.16;100.00
48555;BME280;34336;48.270;16.716;2023-01-09T00:47:23;76586.41;;;18.16;100.00
48555;BME280;34336;48.270;16.716;2023-01-09T00:49:51;76578.69;;;18.16;100.00
48555;BME280;34336;48.270;16.716;2023-01-09T00:52:20;76580.63;;;18.16;100.00
48555;BME280;34336;48.270;16.716;2023-01-09T00:54:48;76578.69;;;18.16;100.00
48555;BME280;34336;48.270;16.716;2023-01-09T00:57:15;76570.97;;;18.16;100.00
48555;BME280;34336;48.270;16.716;2023-01-09T00:59:42;76563.28;;;18.16;100.00
48555;BME280;34336;48.270;16.716;2023-01-09T01:02:09;76555.56;;;18.16;100.00
48555;BME280;34336;48.270;16.716;2023-01-09T01:04:36;76553.63;;;18.16;100.00
48555;BME280;34336;48.270;16.716;2023-01-09T01:07:21;76538.22;;;18.16;100.00
48555;BME280;34336;48.270;16.716;2023-01-09T01:10:22;76538.22;;;18.16;100.00
48555;BME280;34336;48.270;16.716;2023-01-09T01:12:49;76536.28;;;18.16;100.00
48555;BME280;34336;48.270;16.716;2023-01-09T01:15:17;76530.50;;;18.16;100.00
48555;BME280;34336;48.270;16.716;2023-01-09T01:17:44;76536.28;;;18.16;100.00
48555;BME280;34336;48.270;16.716;2023-01-09T01:20:15;76540.16;;;18.16;100.00
48555;BME280;34336;48.270;16.716;2023-01-09T01:22:42;76540.16;;;18.16;100.00
48555;BME280;34336;48.270;16.716;2023-01-09T01:25:10;76536.28;;;18.16;100.00
48555;BME280;34336;48.270;16.716;2023-01-09T01:27:38;76540.16;;;18.16;100.00
48555;BME280;34336;48.270;16.716;2023-01-09T01:30:09;76536.28;;;18.16;100.00
48555;BME280;34336;48.270;16.716;2023-01-09T01:32:36;76540.16;;;18.16;100.00
48555;BME280;34336;48.270;16.716;2023-01-09T01:35:04;76551.72;;;18.16;100.00
48555;BME280;34336;48.270;16.716;2023-01-09T01:37:30;76555.56;;;18.16;100.00
48555;BME280;34336;48.270;16.716;2023-01-09T01:39:57;76551.72;;;18.16;100.00
48555;BME280;34336;48.270;16.716;2023-01-09T01:42:24;76547.84;;;18.16;100.00
48555;BME280;34336;48.270;16.716;2023-01-09T01:45:24;76549.78;;;18.16;100.00
48555;BME280;34336;48.270;16.716;2023-01-09T01:50:38;76544.00;;;18.16;100.00
48555;BME280;34336;48.270;16.716;2023-01-09T01:56:14;76532.44;;;18.16;100.00
48555;BME280;34336;48.270;16.716;2023-01-09T01:58:54;76540.16;;;18.16;100.00
48555;BME280;34336;48.270;16.716;2023-01-09T02:01:24;76530.50;;;18.16;100.00
48555;BME280;34336;48.270;16.716;2023-01-09T02:03:53;76526.66;;;18.16;100.00
48555;BME280;34336;48.270;16.716;2023-01-09T02:06:20;76528.59;;;18.16;100.00
48555;BME280;34336;48.270;16.716;2023-01-09T02:08:47;76518.97;;;18.16;100.00
48555;BME280;34336;48.270;16.716;2023-01-09T02:11:16;76509.31;;;18.16;100.00
48555;BME280;34336;48.270;16.716;2023-01-09T02:13:44;76509.31;;;18.16;100.00
48555;BME280;34336;48.270;16.716;2023-01-09T02:30:30;76449.59;;;18.16;100.00
48555;BME280;34336;48.270;16.716;2023-01-09T02:36:03;76426.47;;;18.16;100.00
48555;BME280;34336;48.270;16.716;2023-01-09T02:41:21;76414.91;;;18.16;100.00
48555;BME280;34336;48.270;16.716;2023-01-09T02:44:16;76418.75;;;18.16;100.00
48555;BME280;34336;48.270;16.716;2023-01-09T02:46:43;76416.81;;;18.16;100.00
48555;BME280;34336;48.270;16.716;2023-01-09T02:49:11;76405.25;;;18.16;100.00
48555;BME280;34336;48.270;16.716;2023-01-09T02:51:51;76397.56;;;18.16;100.00
48555;BME280;34336;48.270;16.716;2023-01-09T03:05:31;76374.44;;;18.16;100.00
48555;BME280;34336;48.270;16.716;2023-01-09T03:08:10;76355.16;;;18.16;100.00
48555;BME280;34336;48.270;16.716;2023-01-09T03:10:49;76351.31;;;18.16;100.00
48555;BME280;34336;48.270;16.716;2023-01-09T03:13:19;76305.06;;;18.16;100.00
48555;BME280;34336;48.270;16.716;2023-01-09T03:15:49;76239.56;;;18.16;100.00
48555;BME280;34336;48.270;16.716;2023-01-09T03:18:20;76150.91;;;18.16;100.00
48555;BME280;34336;48.270;16.716;2023-01-09T03:20:48;76100.81;;;18.16;100.00
48555;BME280;34336;48.270;16.716;2023-01-09T03:23:16;76037.25;;;18.16;100.00
48555;BME280;34336;48.270;16.716;2023-01-09T03:25:43;76014.13;;;18.16;100.00
48555;BME280;34336;48.270;16.716;2023-01-09T03:28:27;76014.13;;;18.16;100.00
48555;BME280;34336;48.270;16.716;2023-01-09T03:30:54;75996.78;;;18.16;100.00
48555;BME280;34336;48.270;16.716;2023-01-09T03:33:21;75992.94;;;18.16;100.00
48555;BME280;34336;48.270;16.716;2023-01-09T03:35:48;75979.44;;;18.16;100.00
48555;BME280;34336;48.270;16.716;2023-01-09T03:38:14;75958.25;;;18.16;100.00
48555;BME280;34336;48.270;16.716;2023-01-09T03:40:41;75950.53;;;18.16;100.00
48555;BME280;34336;48.270;16.716;2023-01-09T03:43:09;75927.41;;;18.16;100.00
48555;BME280;34336;48.270;16.716;2023-01-09T03:45:35;75929.34;;;18.16;100.00
48555;BME280;34336;48.270;16.716;2023-01-09T03:48:02;75910.06;;;18.16;100.00
48555;BME280;34336;48.270;16.716;2023-01-09T03:50:29;75902.38;;;18.16;100.00
48555;BME280;34336;48.270;16.716;2023-01-09T03:52:56;75896.59;;;18.16;100.00
48555;BME280;34336;48.270;16.716;2023-01-09T03:55:22;75885.03;;;18.16;100.00
48555;BME280;34336;48.270;16.716;2023-01-09T03:57:51;75881.19;;;18.16;100.00
48555;BME280;34336;48.270;16.716;2023-01-09T04:00:21;75877.31;;;18.16;100.00
48555;BME280;34336;48.270;16.716;2023-01-09T04:02:48;75869.63;;;18.16;100.00
48555;BME280;34336;48.270;16.716;2023-01-09T04:05:15;75858.06;;;18.16;100.00
48555;BME280;34336;48.270;16.716;2023-01-09T04:07:41;75848.44;;;18.16;100.00
48555;BME280;34336;48.270;16.716;2023-01-09T04:10:09;75850.34;;;18.16;100.00
48555;BME280;34336;48.270;16.716;2023-01-09T04:12:36;75842.66;;;18.16;100.00
48555;BME280;34336;48.270;16.716;2023-01-09T04:15:03;75846.50;;;18.16;100.00
48555;BME280;34336;48.270;16.716;2023-01-09T04:17:29;75842.66;;;18.16;100.00
48555;BME280;34336;48.270;16.716;2023-01-09T04:19:56;75829.16;;;18.16;100.00
48555;BME280;34336;48.270;16.716;2023-01-09T04:22:24;75823.38;;;18.16;100.00
48555;BME280;34336;48.270;16.716;2023-01-09T04:24:51;75811.81;;;18.16;100.00
48555;BME280;34336;48.270;16.716;2023-01-09T04:27:17;75800.25;;;18.16;100.00
48555;BME280;34336;48.270;16.716;2023-01-09T04:29:44;75790.63;;;18.16;100.00
48555;BME280;34336;48.270;16.716;2023-01-09T04:32:13;75769.44;;;18.16;100.00
48555;BME280;34336;48.270;16.716;2023-01-09T04:34:40;75757.88;;;18.16;100.00
48555;BME280;34336;48.270;16.716;2023-01-09T04:37:06;75746.31;;;18.16;100.00
48555;BME280;34336;48.270;16.716;2023-01-09T04:39:33;75725.13;;;18.16;100.00
48555;BME280;34336;48.270;16.716;2023-01-09T04:42:00;75707.78;;;18.16;100.00
48555;BME280;34336;48.270;16.716;2023-01-09T04:44:26;75694.31;;;18.16;100.00
48555;BME280;34336;48.270;16.716;2023-01-09T04:46:54;75692.38;;;18.16;100.00
48555;BME280;34336;48.270;16.716;2023-01-09T04:49:22;75669.25;;;18.16;100.00
48555;BME280;34336;48.270;16.716;2023-01-09T04:51:48;75657.69;;;18.16;100.00
48555;BME280;34336;48.270;16.716;2023-01-09T04:54:15;75632.66;;;18.16;100.00
48555;BME280;34336;48.270;16.716;2023-01-09T04:56:42;75619.16;;;18.16;100.00
48555;BME280;34336;48.270;16.716;2023-01-09T04:59:09;75607.59;;;18.16;100.00
48555;BME280;34336;48.270;16.716;2023-01-09T05:01:36;75588.34;;;18.16;100.00
48555;BME280;34336;48.270;16.716;2023-01-09T05:04:03;75594.13;;;18.16;100.00
48555;BME280;34336;48.270;16.716;2023-01-09T05:06:30;75582.56;;;18.16;100.00
48555;BME280;34336;48.270;16.716;2023-01-09T05:08:57;75576.78;;;18.16;100.00
48555;BME280;34336;48.270;16.716;2023-01-09T05:11:24;75572.94;;;18.16;100.00
48555;BME280;34336;48.270;16.716;2023-01-09T05:13:51;75580.63;;;18.16;100.00
48555;BME280;34336;48.270;16.716;2023-01-09T05:16:19;75580.63;;;18.16;100.00
48555;BME280;34336;48.270;16.716;2023-01-09T05:18:46;75576.78;;;18.16;100.00
48555;BME280;34336;48.270;16.716;2023-01-09T05:21:13;75580.63;;;18.16;100.00
48555;BME280;34336;48.270;16.716;2023-01-09T05:23:40;75569.06;;;18.16;100.00
48555;BME280;34336;48.270;16.716;2023-01-09T05:26:06;75572.94;;;18.16;100.00
48555;BME280;34336;48.270;16.716;2023-01-09T05:28:33;75578.72;;;18.16;100.00
48555;BME280;34336;48.270;16.716;2023-01-09T05:31:00;75576.78;;;18.16;100.00
48555;BME280;34336;48.270;16.716;2023-01-09T05:33:26;75572.94;;;18.16;100.00
48555;BME280;34336;48.270;16.716;2023-01-09T05:35:53;75572.94;;;18.16;100.00
48555;BME280;34336;48.270;16.716;2023-01-09T05:38:20;75574.84;;;18.16;100.00
48555;BME280;34336;48.270;16.716;2023-01-09T05:40:46;75569.06;;;18.16;100.00
48555;BME280;34336;48.270;16.716;2023-01-09T05:43:13;75576.78;;;18.16;100.00
48555;BME280;34336;48.270;16.716;2023-01-09T05:45:40;75569.06;;;18.16;100.00
48555;BME280;34336;48.270;16.716;2023-01-09T05:48:06;75571.00;;;18.16;100.00
48555;BME280;34336;48.270;16.716;2023-01-09T05:50:33;75565.22;;;18.16;100.00
48555;BME280;34336;48.270;16.716;2023-01-09T05:53:00;75565.22;;;18.16;100.00
48555;BME280;34336;48.270;16.716;2023-01-09T05:55:26;75563.31;;;18.16;100.00
48555;BME280;34336;48.270;16.716;2023-01-09T05:57:53;75561.38;;;18.16;100.00
48555;BME280;34336;48.270;16.716;2023-01-09T06:00:20;75557.53;;;18.16;100.00
48555;BME280;34336;48.270;16.716;2023-01-09T06:02:46;75561.38;;;18.16;100.00
48555;BME280;34336;48.270;16.716;2023-01-09T06:05:13;75557.53;;;18.16;100.00
48555;BME280;34336;48.270;16.716;2023-01-09T06:07:40;75549.81;;;18.16;100.00
48555;BME280;34336;48.270;16.716;2023-01-09T06:10:10;75538.25;;;18.16;100.00
48555;BME280;34336;48.270;16.716;2023-01-09T06:12:37;75530.56;;;18.16;100.00
48555;BME280;34336;48.270;16.716;2023-01-09T06:15:04;75522.84;;;18.16;100.00
48555;BME280;34336;48.270;16.716;2023-01-09T06:17:34;75509.34;;;18.16;100.00
48555;BME280;34336;48.270;16.716;2023-01-09T06:20:01;75507.44;;;18.16;100.00
48555;BME280;34336;48.270;16.716;2023-01-09T06:22:27;75503.59;;;18.16;100.00
48555;BME280;34336;48.270;16.716;2023-01-09T06:24:54;75497.81;;;18.16;100.00
48555;BME280;34336;48.270;16.716;2023-01-09T06:27:21;75501.66;;;18.16;100.00
48555;BME280;34336;48.270;16.716;2023-01-09T06:29:47;75507.44;;;18.16;100.00
48555;BME280;34336;48.270;16.716;2023-01-09T06:32:14;75503.59;;;18.16;100.00
48555;BME280;34336;48.270;16.716;2023-01-09T06:34:41;75507.44;;;18.16;100.00
48555;BME280;34336;48.270;16.716;2023-01-09T06:37:07;75513.22;;;18.16;100.00
48555;BME280;34336;48.270;16.716;2023-01-09T06:39:34;75511.28;;;18.16;100.00
48555;BME280;34336;48.270;16.716;2023-01-09T06:42:01;75503.59;;;18.16;100.00
48555;BME280;34336;48.270;16.716;2023-01-09T06:44:27;75507.44;;;18.16;100.00
48555;BME280;34336;48.270;16.716;2023-01-09T06:46:54;75495.88;;;18.16;100.00
48555;BME280;34336;48.270;16.716;2023-01-09T06:49:21;75495.88;;;18.16;100.00
48555;BME280;34336;48.270;16.716;2023-01-09T06:51:50;75492.03;;;18.16;100.00
48555;BME280;34336;48.270;16.716;2023-01-09T06:54:17;75497.81;;;18.16;100.00
48555;BME280;34336;48.270;16.716;2023-01-09T06:56:44;75490.09;;;18.16;100.00
48555;BME280;34336;48.270;16.716;2023-01-09T06:59:11;75495.88;;;18.16;100.00
48555;BME280;34336;48.270;16.716;2023-01-09T07:01:38;75495.88;;;18.16;99.53
48555;BME280;34336;48.270;16.716;2023-01-09T07:04:06;75495.88;;;18.16;99.95
48555;BME280;34336;48.270;16.716;2023-01-09T07:06:33;75499.72;;;18.16;99.62
48555;BME280;34336;48.270;16.716;2023-01-09T07:09:00;75499.72;;;18.16;99.79
48555;BME280;34336;48.270;16.716;2023-01-09T07:11:27;75507.44;;;18.16;99.32
48555;BME280;34336;48.270;16.716;2023-01-09T07:13:53;75495.88;;;18.16;99.14
48555;BME280;34336;48.270;16.716;2023-01-09T07:16:20;75495.88;;;18.16;98.78
48555;BME280;34336;48.270;16.716;2023-01-09T07:18:47;75511.28;;;18.16;99.35
48555;BME280;34336;48.270;16.716;2023-01-09T07:21:13;75503.59;;;18.16;100.00
48555;BME280;34336;48.270;16.716;2023-01-09T07:23:40;75511.28;;;18.16;99.96
48555;BME280;34336;48.270;16.716;2023-01-09T07:26:08;75511.28;;;18.16;100.00
48555;BME280;34336;48.270;16.716;2023-01-09T07:28:37;75515.13;;;18.16;99.81
48555;BME280;34336;48.270;16.716;2023-01-09T07:31:04;75511.28;;;18.16;99.51
48555;BME280;34336;48.270;16.716;2023-01-09T07:33:33;75515.13;;;18.16;99.45
48555;BME280;34336;48.270;16.716;2023-01-09T07:36:00;75513.22;;;18.16;99.48
48555;BME280;34336;48.270;16.716;2023-01-09T07:38:27;75511.28;;;18.16;99.71
48555;BME280;34336;48.270;16.716;2023-01-09T07:40:54;75519.00;;;18.16;99.89
48555;BME280;34336;48.270;16.716;2023-01-09T07:43:20;75519.00;;;18.16;99.99
48555;BME280;34336;48.270;16.716;2023-01-09T07:45:47;75519.00;;;18.16;100.00
48555;BME280;34336;48.270;16.716;2023-01-09T07:48:14;75511.28;;;18.16;100.00
48555;BME280;34336;48.270;16.716;2023-01-09T07:50:40;75507.44;;;18.16;100.00
48555;BME280;34336;48.270;16.716;2023-01-09T07:53:07;75511.28;;;18.16;100.00
48555;BME280;34336;48.270;16.716;2023-01-09T07:55:34;75503.59;;;18.16;100.00
48555;BME280;34336;48.270;16.716;2023-01-09T07:58:00;75503.59;;;18.16;100.00
48555;BME280;34336;48.270;16.716;2023-01-09T08:00:27;75509.34;;;18.16;100.00
48555;BME280;34336;48.270;16.716;2023-01-09T08:02:54;75499.72;;;18.16;100.00
48555;BME280;34336;48.270;16.716;2023-01-09T08:05:21;75497.81;;;18.16;100.00
48555;BME280;34336;48.270;16.716;2023-01-09T08:07:47;75495.88;;;18.16;100.00
48555;BME280;34336;48.270;16.716;2023-01-09T08:10:17;75495.88;;;18.16;100.00
48555;BME280;34336;48.270;16.716;2023-01-09T08:12:46;75490.09;;;18.16;100.00
48555;BME280;34336;48.270;16.716;2023-01-09T08:15:13;75499.72;;;18.16;100.00
48555;BME280;34336;48.270;16.716;2023-01-09T08:17:41;75501.66;;;18.16;100.00
48555;BME280;34336;48.270;16.716;2023-01-09T08:20:10;75519.00;;;18.16;100.00
48555;BME280;34336;48.270;16.716;2023-01-09T08:22:40;75528.63;;;18.16;100.00
48555;BME280;34336;48.270;16.716;2023-01-09T08:25:08;75524.78;;;18.16;100.00
48555;BME280;34336;48.270;16.716;2023-01-09T08:27:37;75538.25;;;18.16;100.00
48555;BME280;34336;48.270;16.716;2023-01-09T08:30:05;75534.41;;;18.16;100.00
48555;BME280;34336;48.270;16.716;2023-01-09T08:32:32;75542.09;;;18.16;100.00
48555;BME280;34336;48.270;16.716;2023-01-09T08:34:58;75553.66;;;18.16;100.00
48555;BME280;34336;48.270;16.716;2023-01-09T08:37:25;75569.06;;;18.16;100.00
48555;BME280;34336;48.270;16.716;2023-01-09T08:39:52;75578.72;;;18.16;100.00
48555;BME280;34336;48.270;16.716;2023-01-09T08:42:19;75576.78;;;18.16;100.00
48555;BME280;34336;48.270;16.716;2023-01-09T08:45:04;75588.34;;;18.16;100.00
48555;BME280;34336;48.270;16.716;2023-01-09T08:47:50;75572.94;;;18.16;100.00
48555;BME280;34336;48.270;16.716;2023-01-09T08:50:17;75592.19;;;18.16;98.28
48555;BME280;34336;48.270;16.716;2023-01-09T08:52:44;75596.03;;;18.16;97.52
48555;BME280;34336;48.270;16.716;2023-01-09T08:55:11;75615.31;;;18.16;97.67
48555;BME280;34336;48.270;16.716;2023-01-09T08:57:46;75630.72;;;18.16;97.45
48555;BME280;34336;48.270;16.716;2023-01-09T09:00:13;75719.34;;;18.16;95.07
48555;BME280;34336;48.270;16.716;2023-01-09T09:02:40;75811.81;;;18.16;94.07
48555;BME280;34336;48.270;16.716;2023-01-09T09:05:07;75842.66;;;18.16;94.47
48555;BME280;34336;48.270;16.716;2023-01-09T09:07:34;75886.97;;;18.16;96.06
48555;BME280;34336;48.270;16.716;2023-01-09T09:10:01;75923.56;;;18.16;96.65
48555;BME280;34336;48.270;16.716;2023-01-09T09:12:28;75954.38;;;18.16;97.54
48555;BME280;34336;48.270;16.716;2023-01-09T09:14:55;75958.25;;;18.16;97.24
48555;BME280;34336;48.270;16.716;2023-01-09T09:17:42;75987.16;;;18.16;97.48
48555;BME280;34336;48.270;16.716;2023-01-09T09:20:09;75987.16;;;18.16;98.47
48555;BME280;34336;48.270;16.716;2023-01-09T09:22:36;76008.34;;;18.16;98.91
48555;BME280;34336;48.270;16.716;2023-01-09T09:25:03;76031.47;;;18.16;99.44
48555;BME280;34336;48.270;16.716;2023-01-09T09:27:30;76039.16;;;18.16;99.91
48555;BME280;34336;48.270;16.716;2023-01-09T09:29:57;76037.25;;;18.16;100.00
48555;BME280;34336;48.270;16.716;2023-01-09T09:32:24;76043.03;;;18.16;100.00
48555;BME280;34336;48.270;16.716;2023-01-09T09:34:50;76035.31;;;18.16;100.00
48555;BME280;34336;48.270;16.716;2023-01-09T09:37:17;76043.03;;;18.16;100.00
48555;BME280;34336;48.270;16.716;2023-01-09T09:39:44;76048.81;;;18.16;100.00
48555;BME280;34336;48.270;16.716;2023-01-09T09:53:09;76062.28;;;18.16;100.00
48555;BME280;34336;48.270;16.716;2023-01-09T09:55:40;76046.88;;;18.16;100.00
48555;BME280;34336;48.270;16.716;2023-01-09T09:58:30;76031.47;;;18.16;100.00
48555;BME280;34336;48.270;16.716;2023-01-09T10:01:00;76004.47;;;18.16;100.00
48555;BME280;34336;48.270;16.716;2023-01-09T10:03:42;75992.94;;;18.16;100.00
48555;BME280;34336;48.270;16.716;2023-01-09T10:06:25;75983.28;;;18.16;100.00
48555;BME280;34336;48.270;16.716;2023-01-09T10:14:46;75981.38;;;18.16;100.00
48555;BME280;34336;48.270;16.716;2023-01-09T10:17:20;75985.22;;;18.16;100.00
48555;BME280;34336;48.270;16.716;2023-01-09T10:30:49;76017.97;;;18.16;100.00
48555;BME280;34336;48.270;16.716;2023-01-09T10:38:30;75994.84;;;18.16;100.00
48555;BME280;34336;48.270;16.716;2023-01-09T10:41:20;75985.22;;;18.16;100.00
48555;BME280;34336;48.270;16.716;2023-01-09T10:44:04;75977.50;;;18.16;100.00
48555;BME280;34336;48.270;16.716;2023-01-09T10:46:53;75965.94;;;18.16;100.00
48555;BME280;34336;48.270;16.716;2023-01-09T10:49:21;75958.25;;;18.16;100.00
48555;BME280;34336;48.270;16.716;2023-01-09T10:52:04;75954.38;;;18.16;100.00
48555;BME280;34336;48.270;16.716;2023-01-09T10:54:59;75948.63;;;18.16;100.00
48555;BME280;34336;48.270;16.716;2023-01-09T10:57:33;75950.53;;;18.16;100.00
48555;BME280;34336;48.270;16.716;2023-01-09T11:00:04;75942.84;;;18.16;100.00
48555;BME280;34336;48.270;16.716;2023-01-09T11:02:34;75944.75;;;18.16;100.00
48555;BME280;34336;48.270;16.716;2023-01-09T11:05:01;75942.84;;;18.16;100.00
48555;BME280;34336;48.270;16.716;2023-01-09T11:07:35;75946.69;;;18.16;100.00
48555;BME280;34336;48.270;16.716;2023-01-09T11:10:05;75938.97;;;18.16;100.00
48555;BME280;34336;48.270;16.716;2023-01-09T11:12:38;75929.34;;;18.16;100.00
48555;BME280;34336;48.270;16.716;2023-01-09T11:17:47;75913.94;;;18.16;100.00
48555;BME280;34336;48.270;16.716;2023-01-09T11:20:27;75904.28;;;18.16;100.00
48555;BME280;34336;48.270;16.716;2023-01-09T11:22:56;75892.75;;;18.16;100.00
48555;BME280;34336;48.270;16.716;2023-01-09T11:25:26;75886.97;;;18.16;100.00
48555;BME280;34336;48.270;16.716;2023-01-09T11:28:11;75867.69;;;18.16;100.00
48555;BME280;34336;48.270;16.716;2023-01-09T11:30:52;75848.44;;;18.16;100.00
48555;BME280;34336;48.270;16.716;2023-01-09T11:33:23;75842.66;;;18.16;100.00
48555;BME280;34336;48.270;16.716;2023-01-09T11:36:03;75823.38;;;18.16;100.00
48555;BME280;34336;48.270;16.716;2023-01-09T11:38:46;75811.81;;;18.16;100.00
48555;BME280;34336;48.270;16.716;2023-01-09T11:41:20;75813.75;;;18.16;100.00
48555;BME280;34336;48.270;16.716;2023-01-09T11:43:49;75815.69;;;18.16;100.00
48555;BME280;34336;48.270;16.716;2023-01-09T11:46:36;75827.22;;;18.16;100.00
48555;BME280;34336;48.270;16.716;2023-01-09T11:49:22;75829.16;;;18.16;100.00
48555;BME280;34336;48.270;16.716;2023-01-09T11:52:19;75844.56;;;18.16;100.00
48555;BME280;34336;48.270;16.716;2023-01-09T11:54:51;75850.34;;;18.16;100.00
48555;BME280;34336;48.270;16.716;2023-01-09T11:57:21;75844.56;;;18.16;100.00
48555;BME280;34336;48.270;16.716;2023-01-09T11:59:50;75846.50;;;18.16;100.00
48555;BME280;34336;48.270;16.716;2023-01-09T12:05:49;75831.09;;;18.16;100.00
48555;BME280;34336;48.270;16.716;2023-01-09T12:21:47;75815.69;;;18.16;100.00
48555;BME280;34336;48.270;16.716;2023-01-09T12:24:32;75817.59;;;18.16;100.00
48555;BME280;34336;48.270;16.716;2023-01-09T12:27:36;75831.09;;;18.16;100.00
48555;BME280;34336;48.270;16.716;2023-01-09T12:36:23;75834.94;;;18.16;100.00
48555;BME280;34336;48.270;16.716;2023-01-09T12:41:57;75829.16;;;18.16;100.00
48555;BME280;34336;48.270;16.716;2023-01-09T12:44:44;75827.22;;;18.16;100.00
48555;BME280;34336;48.270;16.716;2023-01-09T12:52:48;75836.88;;;18.16;100.00
48555;BME280;34336;48.270;16.716;2023-01-09T12:55:24;75842.66;;;18.16;100.00
48555;BME280;34336;48.270;16.716;2023-01-09T12:57:57;75846.50;;;18.16;100.00
48555;BME280;34336;48.270;16.716;2023-01-09T13:00:27;75852.28;;;18.16;100.00
48555;BME280;34336;48.270;16.716;2023-01-09T13:03:03;75850.34;;;18.16;100.00
48555;BME280;34336;48.270;16.716;2023-01-09T13:05:51;75858.06;;;18.16;100.00
48555;BME280;34336;48.270;16.716;2023-01-09T13:08:30;75852.28;;;18.16;100.00
48555;BME280;34336;48.270;16.716;2023-01-09T13:11:12;75846.50;;;18.16;100.00
48555;BME280;34336;48.270;16.716;2023-01-09T13:13:53;75834.94;;;18.16;98.10
48555;BME280;34336;48.270;16.716;2023-01-09T13:16:29;75834.94;;;18.16;97.15
48555;BME280;34336;48.270;16.716;2023-01-09T13:19:04;75823.38;;;18.16;95.86
48555;BME280;34336;48.270;16.716;2023-01-09T13:21:33;75823.38;;;18.16;95.77
48555;BME280;34336;48.270;16.716;2023-01-09T13:24:09;75827.22;;;18.16;96.33
48555;BME280;34336;48.270;16.716;2023-01-09T13:26:57;75834.94;;;18.16;96.98
48555;BME280;34336;48.270;16.716;2023-01-09T13:29:30;75834.94;;;18.16;97.33
48555;BME280;34336;48.270;16.716;2023-01-09T13:34:33;75840.72;;;18.16;97.18
48555;BME280;34336;48.270;16.716;2023-01-09T13:37:01;75842.66;;;18.16;96.50
48555;BME280;34336;48.270;16.716;2023-01-09T13:39:33;75848.44;;;18.16;96.18
48555;BME280;34336;48.270;16.716;2023-01-09T13:42:05;75846.50;;;18.16;96.57
48555;BME280;34336;48.270;16.716;2023-01-09T13:44:54;75850.34;;;18.16;98.49
48555;BME280;34336;48.270;16.716;2023-01-09T13:47:26;75863.84;;;18.16;98.23
48555;BME280;34336;48.270;16.716;2023-01-09T13:50:04;75865.75;;;18.16;97.80
48555;BME280;34336;48.270;16.716;2023-01-09T13:52:46;75861.91;;;18.16;98.34
48555;BME280;34336;48.270;16.716;2023-01-09T14:03:28;75867.69;;;18.16;97.84
48555;BME280;34336;48.270;16.716;2023-01-09T14:08:27;75875.41;;;18.16;98.16
48555;BME280;34336;48.270;16.716;2023-01-09T14:10:56;75869.63;;;18.16;98.45
48555;BME280;34336;48.270;16.716;2023-01-09T14:13:26;75873.47;;;18.16;97.75
48555;BME280;34336;48.270;16.716;2023-01-09T14:16:05;75869.63;;;18.16;96.79
48555;BME280;34336;48.270;16.716;2023-01-09T14:18:38;75873.47;;;18.16;96.95
48555;BME280;34336;48.270;16.716;2023-01-09T14:21:11;75879.25;;;18.16;97.07
48555;BME280;34336;48.270;16.716;2023-01-09T14:24:01;75881.19;;;18.16;98.05
48555;BME280;34336;48.270;16.716;2023-01-09T14:34:53;75906.22;;;18.16;100.00
48555;BME280;34336;48.270;16.716;2023-01-09T14:37:22;75912.00;;;18.16;100.00
48555;BME280;34336;48.270;16.716;2023-01-09T14:39:49;75919.72;;;18.16;100.00
48555;BME280;34336;48.270;16.716;2023-01-09T14:42:20;75917.78;;;18.16;99.79
48555;BME280;34336;48.270;16.716;2023-01-09T14:47:47;75927.41;;;18.16;100.00
48555;BME280;34336;48.270;16.716;2023-01-09T14:50:35;75937.06;;;18.16;100.00
48555;BME280;34336;48.270;16.716;2023-01-09T14:53:04;75940.91;;;18.16;100.00
48555;BME280;34336;48.270;16.716;2023-01-09T14:55:39;75942.84;;;18.16;100.00
48555;BME280;34336;48.270;16.716;2023-01-09T15:03:51;75958.25;;;18.16;100.00
48555;BME280;34336;48.270;16.716;2023-01-09T15:06:20;75964.03;;;18.16;100.00
48555;BME280;34336;48.270;16.716;2023-01-09T15:08:54;75969.81;;;18.16;100.00
48555;BME280;34336;48.270;16.716;2023-01-09T15:11:22;75973.66;;;18.16;100.00
48555;BME280;34336;48.270;16.716;2023-01-09T15:13:51;75975.59;;;18.16;100.00